Orlando International Airport
KMCO : rendu visible

Aérodrome :











RETROUVEZ-NOUS SUR...

 
LOGIN :

S'inscrire | Disclaimer

   EN    FR    IT 

 









Légende :    VFR   VFR Marginal   IFR   IFR Intensif   IFR Très Intensif
Visi : 
Plafond : 
>= 8 km
>= 3000ft
5 à 8 km
1000 à 3000 ft
1500m à 5 km
500 à 1000 ft
800 à 1500m
200 à 500 ft
< 800m
< 200 ft
Symboles :   Orages  Brouillard  Fortes neiges  Fortes précipitations  Vent > 20 kt






- Altitude de l'aérodrome : 96 ft
- Code IATA : MCO


KMCO - Orlando International

DERNIER METAR :
  • 172253Z 06011G21KT 10SM FEW042 SCT055 BKN300 21/13 A3037 RMK AO2 SLP283 T02110128

METARs EXPIRÉS :
  • 172153Z 06017G24KT 10SM SCT043 SCT055 BKN300 22/13 A3035 RMK AO2 PK WND 04026/2059 SLP277 T02220128
  • 172053Z 05020G26KT 10SM SCT044 SCT050 BKN300 23/13 A3034 RMK AO2 PK WND 06026/2006 SLP272 T02280128 55004

TAF KMCO
Valide du 18 à 00h jusqu'au 19 à 06h UTC


172321Z 1800/1906 06012G20KT P6SM SCT050 BKN300
FM180200 05009KT P6SM SCT040 BKN300
FM181500 12012KT P6SM SCT035
FM182100 14010KT P6SM SCT040



MET'MAP, la Météo Aéronautique d'un coup d'oeil ! - Copyright ORBIFLY Décembre 2007 - Disclaimer

ORBIFLY MET'MAP TEAM :

Programmation & Développement : Alexandra Zaïnal
Sur une idée originale de : Baudouin d'Aumeries
Assistance à la programmation : Marc-Olivier Méhu
Soutien technique & logistique : Manuel Goepfert

Contact : metmap@orbifly.com




SOURCES & CREDITS :

   NOAA       Earth
Advisory